createdAt,value
2017-11-03T00:01:06.054Z,86.40
2017-11-03T00:03:34.386Z,86.40
2017-11-03T00:06:03.812Z,86.60
2017-11-03T00:08:33.303Z,86.40
2017-11-03T00:11:02.107Z,86.70
2017-11-03T00:13:31.803Z,86.60
2017-11-03T00:16:00.856Z,86.60
2017-11-03T00:18:32.434Z,86.70
2017-11-03T00:21:03.928Z,87.20
2017-11-03T00:23:32.689Z,87.10
2017-11-03T00:26:01.445Z,87.20
2017-11-03T00:28:30.628Z,87.70
2017-11-03T00:30:59.441Z,87.70
2017-11-03T00:33:28.262Z,88.00
2017-11-03T00:35:57.057Z,88.80
2017-11-03T00:38:26.115Z,89.60
2017-11-03T00:40:54.929Z,89.50
2017-11-03T00:43:23.579Z,89.00
2017-11-03T00:45:51.981Z,89.40
2017-11-03T00:48:20.818Z,88.90
2017-11-03T00:50:49.447Z,89.20
2017-11-03T00:53:18.090Z,89.90
2017-11-03T00:55:48.201Z,89.90
2017-11-03T00:58:17.777Z,89.20
2017-11-03T01:00:47.089Z,89.40
2017-11-03T01:03:15.820Z,89.40
2017-11-03T01:05:44.732Z,88.80
2017-11-03T01:08:13.617Z,88.80
2017-11-03T01:10:41.741Z,88.60
2017-11-03T01:13:09.889Z,88.70
2017-11-03T01:15:39.268Z,89.60
2017-11-03T01:18:07.376Z,89.00
2017-11-03T01:20:35.514Z,88.90
2017-11-03T01:23:03.648Z,89.10
2017-11-03T01:25:32.564Z,90.10
2017-11-03T01:28:00.690Z,89.60
2017-11-03T01:30:28.839Z,89.30
2017-11-03T01:32:56.976Z,88.70
2017-11-03T01:35:25.876Z,88.20
2017-11-03T01:37:54.004Z,88.10
2017-11-03T01:40:22.169Z,87.90
2017-11-03T01:42:50.304Z,87.70
2017-11-03T01:45:18.456Z,87.60
2017-11-03T01:47:47.339Z,87.30
2017-11-03T01:50:17.828Z,87.40
2017-11-03T01:52:46.500Z,87.40
2017-11-03T01:55:14.649Z,87.20
2017-11-03T01:57:42.793Z,87.10
2017-11-03T02:00:11.681Z,87.20
2017-11-03T02:02:40.596Z,87.10
2017-11-03T02:05:08.724Z,87.00
2017-11-03T02:07:36.889Z,86.80
2017-11-03T02:10:05.014Z,86.90
2017-11-03T02:12:33.165Z,86.70
2017-11-03T02:15:02.070Z,87.00
2017-11-03T02:17:30.200Z,86.80
2017-11-03T02:19:58.408Z,86.80
2017-11-03T02:22:27.317Z,86.80
2017-11-03T02:24:55.446Z,86.80
2017-11-03T02:27:23.576Z,87.10
2017-11-03T02:29:51.728Z,87.30
2017-11-03T02:32:19.848Z,87.30
2017-11-03T02:34:47.996Z,88.30
2017-11-03T02:37:16.117Z,88.80
2017-11-03T02:39:45.024Z,88.60
2017-11-03T02:42:13.183Z,88.60
2017-11-03T02:44:42.081Z,89.30
2017-11-03T02:47:10.984Z,89.00
2017-11-03T02:49:39.120Z,89.00
2017-11-03T02:52:07.277Z,89.00
2017-11-03T02:54:35.423Z,88.60
2017-11-03T02:57:04.358Z,87.50
2017-11-03T02:59:32.514Z,87.50
2017-11-03T03:02:00.668Z,88.40
2017-11-03T03:04:28.803Z,88.40
2017-11-03T03:06:56.960Z,88.20
2017-11-03T03:09:25.874Z,87.80
2017-11-03T03:11:54.037Z,88.30
2017-11-03T03:14:22.937Z,87.20
2017-11-03T03:16:51.100Z,87.20
2017-11-03T03:19:19.228Z,87.60
2017-11-03T03:21:47.388Z,88.00
2017-11-03T03:24:15.513Z,88.10
2017-11-03T03:26:43.658Z,89.10
2017-11-03T03:29:11.800Z,90.00
2017-11-03T03:31:39.944Z,90.20
2017-11-03T03:34:08.081Z,90.20
2017-11-03T03:36:37.733Z,89.00
2017-11-03T03:39:05.888Z,89.00
2017-11-03T03:41:34.040Z,89.30
2017-11-03T03:44:02.178Z,89.00
2017-11-03T03:46:31.089Z,89.80
2017-11-03T03:48:59.236Z,90.00
2017-11-03T03:51:27.364Z,89.00
2017-11-03T03:53:56.271Z,88.00
2017-11-03T03:56:24.402Z,88.00
2017-11-03T03:58:54.060Z,87.40
2017-11-03T04:14:27.963Z,90.10
2017-11-03T04:16:56.084Z,90.10
2017-11-03T04:19:24.988Z,90.20
2017-11-03T04:21:53.880Z,90.40
2017-11-03T04:24:22.021Z,90.30
2017-11-03T04:26:50.184Z,90.00
2017-11-03T04:29:18.297Z,88.50
2017-11-03T04:31:46.450Z,89.90
2017-11-03T04:34:15.347Z,90.20
2017-11-03T04:36:44.274Z,90.40
2017-11-03T04:39:12.416Z,90.40
2017-11-03T04:41:40.565Z,90.20
2017-11-03T04:44:08.690Z,90.50
2017-11-03T04:46:36.842Z,90.70
2017-11-03T04:49:04.977Z,90.80
2017-11-03T04:51:33.138Z,90.10
2017-11-03T04:54:01.264Z,89.40
2017-11-03T04:56:29.427Z,88.70
2017-11-03T04:58:58.349Z,88.80
2017-11-03T05:01:26.479Z,88.80
2017-11-03T05:03:55.388Z,90.40
2017-11-03T05:06:23.508Z,90.40
2017-11-03T05:08:51.640Z,90.50
2017-11-03T05:11:19.790Z,90.30
2017-11-03T05:13:48.680Z,90.60
2017-11-03T05:16:17.591Z,90.10
2017-11-03T05:18:45.779Z,90.10
2017-11-03T05:21:13.918Z,90.10
2017-11-03T05:23:42.835Z,90.10
2017-11-03T05:26:10.971Z,90.00
2017-11-03T05:28:39.872Z,89.60
2017-11-03T05:31:08.021Z,89.50
2017-11-03T05:33:36.928Z,89.40
2017-11-03T05:36:05.886Z,89.30
2017-11-03T05:38:34.044Z,89.20
2017-11-03T05:41:02.167Z,88.80
2017-11-03T05:43:30.308Z,89.20
2017-11-03T05:45:58.451Z,89.90
2017-11-03T05:48:26.582Z,90.10
2017-11-03T05:50:55.484Z,89.60
2017-11-03T05:53:23.628Z,89.40
2017-11-03T05:55:51.764Z,90.00
2017-11-03T05:58:19.926Z,89.30
2017-11-03T06:00:48.056Z,89.10
2017-11-03T06:03:17.030Z,89.60
2017-11-03T06:05:45.199Z,89.50
2017-11-03T06:08:13.454Z,90.10
2017-11-03T06:10:41.621Z,89.70
2017-11-03T06:13:09.756Z,89.10
2017-11-03T06:15:38.705Z,88.90
2017-11-03T06:18:06.838Z,88.80
2017-11-03T06:20:34.977Z,88.60
2017-11-03T06:23:03.882Z,88.50
2017-11-03T06:25:32.010Z,88.50
2017-11-03T06:28:00.153Z,89.20
2017-11-03T06:30:28.307Z,89.10
2017-11-03T06:32:56.434Z,89.20
2017-11-03T06:35:24.592Z,89.10
2017-11-03T06:37:53.518Z,88.70
2017-11-03T06:40:21.650Z,88.60
2017-11-03T06:42:49.810Z,88.50
2017-11-03T06:45:17.925Z,87.50
2017-11-03T06:47:46.835Z,87.50
2017-11-03T06:50:14.972Z,87.50
2017-11-03T06:52:43.135Z,87.50
2017-11-03T06:55:12.035Z,87.90
2017-11-03T06:57:40.172Z,87.90
2017-11-03T07:00:09.076Z,88.70
2017-11-03T07:02:37.220Z,88.70
2017-11-03T07:05:05.374Z,90.20
2017-11-03T07:07:34.259Z,90.70
2017-11-03T07:10:03.183Z,90.70
2017-11-03T07:12:31.319Z,90.60
2017-11-03T07:15:00.246Z,90.20
2017-11-03T07:17:28.380Z,90.20
2017-11-03T07:19:56.510Z,90.10
2017-11-03T07:22:24.652Z,90.40
2017-11-03T07:24:52.788Z,90.60
2017-11-03T07:27:20.932Z,90.80
2017-11-03T07:29:49.073Z,90.60
2017-11-03T07:32:17.206Z,90.10
2017-11-03T07:34:45.358Z,90.30
2017-11-03T07:37:13.501Z,90.50
2017-11-03T07:39:41.628Z,90.30
2017-11-03T07:42:10.557Z,90.40
2017-11-03T07:44:39.496Z,90.10
2017-11-03T07:47:07.628Z,90.10
2017-11-03T07:49:35.764Z,89.70
2017-11-03T07:52:04.692Z,89.30
2017-11-03T07:54:32.836Z,89.20
2017-11-03T07:57:01.737Z,88.90
2017-11-03T07:59:30.659Z,88.90
2017-11-03T08:01:58.796Z,88.90
2017-11-03T08:04:26.963Z,89.20
2017-11-03T08:06:55.884Z,88.80
2017-11-03T08:09:24.027Z,88.80
2017-11-03T08:11:52.925Z,88.30
2017-11-03T08:14:21.080Z,88.30
2017-11-03T08:16:49.992Z,88.40
2017-11-03T08:19:18.141Z,88.40
2017-11-03T08:21:47.361Z,88.30
2017-11-03T08:24:16.273Z,88.00
2017-11-03T08:26:44.392Z,88.00
2017-11-03T08:29:13.332Z,87.70
2017-11-03T08:31:41.485Z,87.70
2017-11-03T08:34:09.624Z,87.30
2017-11-03T08:36:37.784Z,87.00
2017-11-03T08:39:05.930Z,87.00
2017-11-03T08:41:34.084Z,86.90
2017-11-03T08:44:02.252Z,86.80
2017-11-03T08:46:30.400Z,86.80
2017-11-03T08:48:58.553Z,86.70
2017-11-03T08:51:26.684Z,86.60
2017-11-03T08:53:54.845Z,86.30
2017-11-03T08:56:22.988Z,86.20
2017-11-03T08:58:51.175Z,86.30
2017-11-03T09:01:20.111Z,86.40
2017-11-03T09:03:48.226Z,86.20
2017-11-03T09:06:17.146Z,86.10
2017-11-03T09:09:00.284Z,85.80
2017-11-03T09:11:28.458Z,85.80
2017-11-03T09:13:56.571Z,85.20
2017-11-03T09:16:24.762Z,85.20
2017-11-03T09:18:53.678Z,85.20
2017-11-03T09:21:21.825Z,85.20
2017-11-03T09:23:50.872Z,84.90
2017-11-03T09:26:19.053Z,84.80
2017-11-03T09:28:47.202Z,84.40
2017-11-03T09:31:15.350Z,84.40
2017-11-03T09:33:44.366Z,84.10
2017-11-03T09:36:12.534Z,84.00
2017-11-03T09:38:41.548Z,83.80
2017-11-03T09:41:09.685Z,83.70
2017-11-03T09:43:37.850Z,83.70
2017-11-03T09:46:05.973Z,83.80
2017-11-03T09:48:34.117Z,83.80
2017-11-03T09:51:02.275Z,83.60
2017-11-03T09:53:32.192Z,83.60
2017-11-03T09:56:00.334Z,83.60
2017-11-03T09:58:28.485Z,83.20
2017-11-03T10:00:56.624Z,83.40
2017-11-03T10:03:24.776Z,83.50
2017-11-03T10:05:53.679Z,82.80
2017-11-03T10:08:21.836Z,82.80
2017-11-03T10:10:50.734Z,82.90
2017-11-03T10:13:18.882Z,82.90
2017-11-03T10:15:47.045Z,82.80
2017-11-03T10:18:15.185Z,82.60
2017-11-03T10:20:43.315Z,82.50
2017-11-03T10:23:12.223Z,82.70
2017-11-03T10:25:40.384Z,82.60
2017-11-03T10:28:09.289Z,82.40
2017-11-03T10:30:37.504Z,82.40
2017-11-03T10:33:05.667Z,82.30
2017-11-03T10:35:33.833Z,82.20
2017-11-03T10:38:02.763Z,82.70
2017-11-03T10:40:30.916Z,82.60
2017-11-03T10:42:59.064Z,82.50
2017-11-03T10:45:27.217Z,82.60
2017-11-03T10:47:56.130Z,82.60
2017-11-03T10:50:24.262Z,82.60
2017-11-03T10:52:52.421Z,82.70
2017-11-03T10:55:20.797Z,82.80
2017-11-03T10:57:48.938Z,82.70
2017-11-03T11:00:17.086Z,82.60
2017-11-03T11:02:45.977Z,82.50
2017-11-03T11:05:14.125Z,82.50
2017-11-03T11:07:42.256Z,82.20
2017-11-03T11:10:10.448Z,81.90
2017-11-03T11:12:38.597Z,81.80
2017-11-03T11:15:06.727Z,81.80
2017-11-03T11:17:35.634Z,81.80
2017-11-03T11:20:03.780Z,81.70
2017-11-03T11:22:32.689Z,81.30
2017-11-03T11:25:01.600Z,81.20
2017-11-03T11:27:29.770Z,81.20
2017-11-03T11:29:57.910Z,81.20
2017-11-03T11:32:27.057Z,80.70
2017-11-03T11:34:55.204Z,81.00
2017-11-03T11:37:23.353Z,81.30
2017-11-03T11:39:52.240Z,80.70
2017-11-03T11:42:21.172Z,80.90
2017-11-03T11:44:49.305Z,80.90
2017-11-03T11:47:18.308Z,80.10
2017-11-03T11:49:46.465Z,80.10
2017-11-03T11:52:15.384Z,80.10
2017-11-03T11:54:43.530Z,80.10
2017-11-03T11:57:12.449Z,79.90
2017-11-03T11:59:40.582Z,79.90
2017-11-03T12:02:08.724Z,79.50
2017-11-03T12:04:36.858Z,79.90
2017-11-03T12:07:05.009Z,79.10
2017-11-03T12:09:33.924Z,78.70
2017-11-03T12:12:02.070Z,78.10
2017-11-03T12:14:30.980Z,78.10
2017-11-03T12:16:59.917Z,78.00
2017-11-03T12:19:28.056Z,78.00
2017-11-03T12:21:56.215Z,78.50
2017-11-03T12:24:25.049Z,78.70
2017-11-03T12:26:53.211Z,77.90
2017-11-03T12:29:21.342Z,78.00
2017-11-03T12:31:50.289Z,78.20
2017-11-03T12:34:18.432Z,78.10
2017-11-03T12:36:46.611Z,78.50
2017-11-03T12:39:14.870Z,78.50
2017-11-03T12:41:43.029Z,78.30
2017-11-03T12:44:11.924Z,78.20
2017-11-03T12:46:40.547Z,78.10
2017-11-03T12:49:08.703Z,78.10
2017-11-03T12:51:36.845Z,78.10
2017-11-03T12:54:05.765Z,77.90
2017-11-03T12:56:33.903Z,77.90
2017-11-03T12:59:02.806Z,77.10
2017-11-03T13:01:30.951Z,77.10
2017-11-03T13:03:59.091Z,76.90
2017-11-03T13:06:27.255Z,76.80
2017-11-03T13:08:56.266Z,77.20
2017-11-03T13:11:24.399Z,77.00
2017-11-03T13:13:52.558Z,76.50
2017-11-03T13:16:21.477Z,76.10
2017-11-03T13:18:49.605Z,76.00
2017-11-03T13:21:17.770Z,75.80
2017-11-03T13:23:45.907Z,75.50
2017-11-03T13:26:14.828Z,75.60
2017-11-03T13:28:43.033Z,75.30
2017-11-03T13:31:11.914Z,75.70
2017-11-03T13:33:40.839Z,75.40
2017-11-03T13:57:15.177Z,75.70
2017-11-03T13:59:43.342Z,75.60
2017-11-03T14:02:12.244Z,75.30
2017-11-03T14:04:40.397Z,75.30
2017-11-03T14:07:09.311Z,75.20
2017-11-03T14:09:37.578Z,75.10
2017-11-03T14:12:05.713Z,74.70
2017-11-03T14:14:33.860Z,73.70
2017-11-03T14:17:01.996Z,73.10
2017-11-03T14:19:30.908Z,72.50
2017-11-03T14:21:59.926Z,72.50
2017-11-03T14:24:28.070Z,71.90
2017-11-03T14:26:56.200Z,70.70
2017-11-03T14:29:24.378Z,67.50
2017-11-03T14:31:52.536Z,63.90
2017-11-03T14:34:20.681Z,60.10
2017-11-03T14:36:48.863Z,56.90
2017-11-03T14:39:17.016Z,54.90
2017-11-03T14:41:45.177Z,53.90
2017-11-03T14:44:13.318Z,54.30
2017-11-03T14:46:41.509Z,54.90
2017-11-03T14:49:10.453Z,57.90
2017-11-03T14:51:38.610Z,57.90
2017-11-03T14:54:06.832Z,59.60
2017-11-03T14:56:34.981Z,61.50
2017-11-03T14:59:03.120Z,63.10
2017-11-03T15:01:31.261Z,64.70
2017-11-03T15:04:00.191Z,67.20
2017-11-03T15:06:28.354Z,67.10
2017-11-03T15:08:56.532Z,68.20
2017-11-03T15:11:24.696Z,69.20
2017-11-03T15:13:54.019Z,70.10
2017-11-03T15:16:22.139Z,71.00
2017-11-03T15:18:50.325Z,71.80
2017-11-03T15:21:18.459Z,72.30
2017-11-03T15:23:47.383Z,73.30
2017-11-03T15:26:16.318Z,74.00
2017-11-03T15:28:44.473Z,73.80
2017-11-03T15:31:12.645Z,74.10
2017-11-03T15:33:40.828Z,74.80
2017-11-03T15:36:08.960Z,74.80
2017-11-03T15:38:37.890Z,75.20
2017-11-03T15:41:06.022Z,75.50
2017-11-03T15:43:34.925Z,76.40
2017-11-03T15:46:04.680Z,76.60
2017-11-03T15:48:33.412Z,76.50
2017-11-03T15:51:01.577Z,76.90
2017-11-03T15:53:29.728Z,77.40
2017-11-03T15:55:57.877Z,77.60
2017-11-03T15:58:26.057Z,77.70
2017-11-03T16:00:54.968Z,78.10
2017-11-03T16:03:23.101Z,78.10
2017-11-03T16:05:51.269Z,78.70
2017-11-03T16:08:19.426Z,78.90
2017-11-03T16:10:48.545Z,79.50
2017-11-03T16:13:16.789Z,79.50
2017-11-03T16:15:45.703Z,80.10
2017-11-03T16:18:14.869Z,80.00
2017-11-03T16:20:43.008Z,80.60
2017-11-03T16:23:11.917Z,81.10
2017-11-03T16:25:40.109Z,81.00
2017-11-03T16:28:09.041Z,81.10
2017-11-03T16:30:37.216Z,81.10
2017-11-03T16:33:05.404Z,81.60
2017-11-03T16:35:33.571Z,81.40
2017-11-03T16:38:01.710Z,80.90
2017-11-03T16:40:29.873Z,80.50
2017-11-03T16:42:58.790Z,79.80
2017-11-03T16:45:26.950Z,79.70
2017-11-03T16:47:55.116Z,80.20
2017-11-03T16:50:24.028Z,80.10
2017-11-03T16:52:52.200Z,80.10
2017-11-03T16:55:20.353Z,80.20
2017-11-03T16:57:48.524Z,80.30
2017-11-03T17:00:19.139Z,80.70
2017-11-03T17:02:47.296Z,80.60
2017-11-03T17:05:16.337Z,80.70
2017-11-03T17:07:44.497Z,80.80
2017-11-03T17:10:12.652Z,80.70
2017-11-03T17:12:41.572Z,81.50
2017-11-03T17:15:09.741Z,81.40
2017-11-03T17:17:37.881Z,81.70
2017-11-03T17:20:06.048Z,81.70
2017-11-03T17:22:34.192Z,81.70
2017-11-03T17:25:02.468Z,81.50
2017-11-03T17:27:30.616Z,81.80
2017-11-03T17:29:58.784Z,81.80
2017-11-03T17:32:26.926Z,81.70
2017-11-03T17:34:55.854Z,81.90
2017-11-03T17:37:24.001Z,81.90
2017-11-03T17:39:52.918Z,82.50
2017-11-03T17:42:21.995Z,82.50
2017-11-03T17:44:50.902Z,82.50
2017-11-03T17:47:19.085Z,82.30
2017-11-03T17:49:49.446Z,82.20
2017-11-03T17:52:17.599Z,82.10
2017-11-03T17:54:45.734Z,82.20
2017-11-03T17:57:13.917Z,82.30
2017-11-03T17:59:42.064Z,82.00
2017-11-03T18:02:10.977Z,82.90
2017-11-03T18:04:39.086Z,82.80
2017-11-03T18:07:07.217Z,82.50
2017-11-03T18:09:35.405Z,82.00
2017-11-03T18:12:03.584Z,81.90
2017-11-03T18:14:31.728Z,81.60
2017-11-03T18:17:00.676Z,81.10
2017-11-03T18:19:29.605Z,81.00
2017-11-03T18:21:58.516Z,80.90
2017-11-03T18:24:26.666Z,80.90
2017-11-03T18:26:55.570Z,80.90
2017-11-03T18:29:23.734Z,80.90
2017-11-03T18:31:52.617Z,82.00
2017-11-03T18:34:21.570Z,83.10
2017-11-03T18:36:49.713Z,83.00
2017-11-03T18:39:17.871Z,83.50
2017-11-03T18:41:46.017Z,83.80
2017-11-03T18:44:14.148Z,83.60
2017-11-03T18:46:42.529Z,84.10
2017-11-03T18:49:11.414Z,84.70
2017-11-03T18:51:41.496Z,84.70
2017-11-03T18:54:09.638Z,83.50
2017-11-03T18:56:37.766Z,84.20
2017-11-03T18:59:05.955Z,86.10
2017-11-03T19:01:34.887Z,85.60
2017-11-03T19:04:03.037Z,85.50
2017-11-03T19:06:31.230Z,84.80
2017-11-03T19:09:00.123Z,84.10
2017-11-03T19:11:29.218Z,84.10
2017-11-03T19:13:57.348Z,83.90
2017-11-03T19:16:25.563Z,83.30
2017-11-03T19:18:53.745Z,82.70
2017-11-03T19:21:23.411Z,86.70
2017-11-03T19:23:51.557Z,86.00
2017-11-03T19:26:20.466Z,83.70
2017-11-03T19:28:48.650Z,83.70
2017-11-03T19:31:16.835Z,83.50
2017-11-03T19:33:44.967Z,83.00
2017-11-03T19:36:13.875Z,84.90
2017-11-03T19:38:42.806Z,86.00
2017-11-03T19:41:10.949Z,86.00
2017-11-03T19:43:39.094Z,84.10
2017-11-03T19:46:07.254Z,83.40
2017-11-03T19:48:35.447Z,83.10
2017-11-03T19:51:03.577Z,85.20
2017-11-03T19:53:31.748Z,87.80
2017-11-03T19:55:59.894Z,88.60
2017-11-03T19:58:28.038Z,88.30
2017-11-03T20:00:56.394Z,86.80
2017-11-03T20:03:24.557Z,85.50
2017-11-03T20:05:54.323Z,83.30
2017-11-03T20:08:22.495Z,83.30
2017-11-03T20:10:50.652Z,83.20
2017-11-03T20:13:18.803Z,83.20
2017-11-03T20:15:46.943Z,83.70
2017-11-03T20:18:15.936Z,85.00
2017-11-03T20:20:44.092Z,85.00
2017-11-03T20:23:12.237Z,86.50
2017-11-03T20:25:40.389Z,85.50
2017-11-03T20:28:08.581Z,86.70
2017-11-03T20:30:36.728Z,86.50
2017-11-03T20:33:04.880Z,88.60
2017-11-03T20:35:33.037Z,87.80
2017-11-03T20:38:02.020Z,86.40
2017-11-03T20:40:30.202Z,86.80
2017-11-03T20:42:58.360Z,87.10
2017-11-03T20:45:26.504Z,87.30
2017-11-03T20:47:54.641Z,86.80
2017-11-03T20:50:23.637Z,88.40
2017-11-03T20:52:52.539Z,88.10
2017-11-03T20:55:20.727Z,88.10
2017-11-03T20:57:48.849Z,86.70
2017-11-03T21:00:17.013Z,86.00
2017-11-03T21:02:45.163Z,85.50
2017-11-03T21:05:14.104Z,86.20
2017-11-03T21:07:43.046Z,86.20
2017-11-03T21:10:11.941Z,86.00
2017-11-03T21:12:41.932Z,86.00
2017-11-03T21:15:11.329Z,85.50
2017-11-03T21:17:39.450Z,85.10
2017-11-03T21:20:07.609Z,84.90
2017-11-03T21:22:35.748Z,84.10
2017-11-03T21:25:03.972Z,83.90
2017-11-03T21:27:33.627Z,83.40
2017-11-03T21:30:01.770Z,82.90
2017-11-03T21:32:31.992Z,83.50
2017-11-03T21:35:00.906Z,84.50
2017-11-03T21:37:29.080Z,83.80
2017-11-03T21:39:57.236Z,84.00
2017-11-03T21:42:26.167Z,83.90
2017-11-03T21:44:54.307Z,83.90
2017-11-03T21:47:23.223Z,82.90
2017-11-03T21:49:51.389Z,82.90
2017-11-03T21:52:19.545Z,83.90
2017-11-03T21:54:47.690Z,83.00
2017-11-03T21:57:15.832Z,82.60
2017-11-03T21:59:43.989Z,82.10
2017-11-03T22:02:12.184Z,81.80
2017-11-03T22:04:42.606Z,80.70
2017-11-03T22:07:10.764Z,80.70
2017-11-03T22:09:38.914Z,81.00
2017-11-03T22:12:08.136Z,81.00
2017-11-03T22:14:36.390Z,81.00
2017-11-03T22:17:06.203Z,81.40
2017-11-03T22:19:34.368Z,81.20
2017-11-03T22:22:02.543Z,81.60
2017-11-03T22:24:30.698Z,81.30
2017-11-03T22:26:59.623Z,81.70
2017-11-03T22:29:27.770Z,81.70
2017-11-03T22:31:56.661Z,81.60
2017-11-03T22:34:24.838Z,81.50
2017-11-03T22:36:52.963Z,81.70
2017-11-03T22:39:21.096Z,81.90
2017-11-03T22:41:49.249Z,81.90
2017-11-03T22:44:17.393Z,82.00
2017-11-03T22:46:46.309Z,81.80
2017-11-03T22:49:14.474Z,81.80
2017-11-03T22:51:43.411Z,82.10
2017-11-03T22:54:12.478Z,82.00
2017-11-03T22:56:41.950Z,84.10
2017-11-03T22:59:10.858Z,83.70
2017-11-03T23:01:39.774Z,87.10
2017-11-03T23:04:07.913Z,87.10
2017-11-03T23:06:36.817Z,86.60
2017-11-03T23:09:05.712Z,85.50
2017-11-03T23:11:34.437Z,85.50
2017-11-03T23:14:02.585Z,86.40
2017-11-03T23:16:30.741Z,86.50
2017-11-03T23:18:59.640Z,86.90
2017-11-03T23:21:27.764Z,86.80
2017-11-03T23:23:55.911Z,85.70
2017-11-03T23:26:24.049Z,84.60
2017-11-03T23:28:52.286Z,83.70
2017-11-03T23:31:20.445Z,84.90
2017-11-03T23:33:48.604Z,85.40
2017-11-03T23:36:16.785Z,84.30
2017-11-03T23:38:44.956Z,83.30
2017-11-03T23:41:13.096Z,85.10
2017-11-03T23:43:42.105Z,84.70
2017-11-03T23:46:10.285Z,84.60
2017-11-03T23:48:38.513Z,85.20
2017-11-03T23:51:07.444Z,87.50
2017-11-03T23:53:35.567Z,87.50
2017-11-03T23:56:04.646Z,86.30
2017-11-03T23:58:32.773Z,86.20
